sensor_id;sensor_type;location;lat;lon;timestamp;temperature;humidity
21246;DHT22;10781;50.928;4.440;2023-03-01T00:02:20;2.70;99.90
21246;DHT22;10781;50.928;4.440;2023-03-01T00:04:46;2.80;99.90
21246;DHT22;10781;50.928;4.440;2023-03-01T00:07:12;2.80;99.90
21246;DHT22;10781;50.928;4.440;2023-03-01T00:09:37;2.80;99.90
21246;DHT22;10781;50.928;4.440;2023-03-01T00:12:04;3.10;99.90
21246;DHT22;10781;50.928;4.440;2023-03-01T00:14:29;3.20;99.90
21246;DHT22;10781;50.928;4.440;2023-03-01T00:16:55;3.10;99.90
21246;DHT22;10781;50.928;4.440;2023-03-01T00:19:21;3.40;99.90
21246;DHT22;10781;50.928;4.440;2023-03-01T00:21:47;3.40;99.90
21246;DHT22;10781;50.928;4.440;2023-03-01T00:24:13;3.40;99.90
21246;DHT22;10781;50.928;4.440;2023-03-01T00:26:39;3.40;99.90
21246;DHT22;10781;50.928;4.440;2023-03-01T00:29:04;3.40;99.90
21246;DHT22;10781;50.928;4.440;2023-03-01T00:31:32;3.60;99.90
21246;DHT22;10781;50.928;4.440;2023-03-01T00:34:00;3.40;99.90
21246;DHT22;10781;50.928;4.440;2023-03-01T00:36:32;3.20;99.90
21246;DHT22;10781;50.928;4.440;2023-03-01T00:38:57;3.20;99.90
21246;DHT22;10781;50.928;4.440;2023-03-01T00:41:23;3.20;99.90
21246;DHT22;10781;50.928;4.440;2023-03-01T00:43:52;3.20;99.90
21246;DHT22;10781;50.928;4.440;2023-03-01T00:46:25;3.40;99.90
21246;DHT22;10781;50.928;4.440;2023-03-01T00:48:51;3.20;99.90
21246;DHT22;10781;50.928;4.440;2023-03-01T00:51:19;3.30;99.90
21246;DHT22;10781;50.928;4.440;2023-03-01T00:53:46;3.40;99.90
21246;DHT22;10781;50.928;4.440;2023-03-01T00:56:14;3.30;99.90
21246;DHT22;10781;50.928;4.440;2023-03-01T00:58:40;3.40;99.90
21246;DHT22;10781;50.928;4.440;2023-03-01T01:01:17;3.40;99.90
21246;DHT22;10781;50.928;4.440;2023-03-01T01:03:52;3.00;99.90
21246;DHT22;10781;50.928;4.440;2023-03-01T01:06:41;2.80;99.90
21246;DHT22;10781;50.928;4.440;2023-03-01T01:09:06;2.60;99.90
21246;DHT22;10781;50.928;4.440;2023-03-01T01:11:32;2.20;99.90
21246;DHT22;10781;50.928;4.440;2023-03-01T01:14:00;2.00;99.90
21246;DHT22;10781;50.928;4.440;2023-03-01T01:16:27;2.10;99.90
21246;DHT22;10781;50.928;4.440;2023-03-01T01:18:53;2.10;99.90
21246;DHT22;10781;50.928;4.440;2023-03-01T01:21:22;2.20;99.90
21246;DHT22;10781;50.928;4.440;2023-03-01T01:23:48;1.90;99.90
21246;DHT22;10781;50.928;4.440;2023-03-01T01:26:17;2.10;99.90
21246;DHT22;10781;50.928;4.440;2023-03-01T01:28:43;2.20;99.90
21246;DHT22;10781;50.928;4.440;2023-03-01T01:31:08;2.10;99.90
21246;DHT22;10781;50.928;4.440;2023-03-01T01:33:34;2.00;99.90
21246;DHT22;10781;50.928;4.440;2023-03-01T01:36:00;2.10;99.90
21246;DHT22;10781;50.928;4.440;2023-03-01T01:38:26;2.30;99.90
21246;DHT22;10781;50.928;4.440;2023-03-01T01:40:52;2.30;99.90
21246;DHT22;10781;50.928;4.440;2023-03-01T01:43:20;2.30;99.90
21246;DHT22;10781;50.928;4.440;2023-03-01T01:45:46;2.30;99.90
21246;DHT22;10781;50.928;4.440;2023-03-01T01:48:16;2.20;99.90
21246;DHT22;10781;50.928;4.440;2023-03-01T01:50:42;2.20;99.90
21246;DHT22;10781;50.928;4.440;2023-03-01T01:53:14;1.90;99.90
21246;DHT22;10781;50.928;4.440;2023-03-01T01:55:45;2.10;99.90
21246;DHT22;10781;50.928;4.440;2023-03-01T01:58:15;2.20;99.90
21246;DHT22;10781;50.928;4.440;2023-03-01T02:00:43;2.50;99.90
21246;DHT22;10781;50.928;4.440;2023-03-01T02:03:36;2.80;99.90
21246;DHT22;10781;50.928;4.440;2023-03-01T02:06:33;3.00;99.90
21246;DHT22;10781;50.928;4.440;2023-03-01T02:09:02;2.80;99.90
21246;DHT22;10781;50.928;4.440;2023-03-01T02:11:31;2.80;99.90
21246;DHT22;10781;50.928;4.440;2023-03-01T02:13:57;2.80;99.90
21246;DHT22;10781;50.928;4.440;2023-03-01T02:16:23;3.00;99.90
21246;DHT22;10781;50.928;4.440;2023-03-01T02:18:50;2.90;99.90
21246;DHT22;10781;50.928;4.440;2023-03-01T02:23:44;2.90;99.90
21246;DHT22;10781;50.928;4.440;2023-03-01T02:26:29;2.90;99.90
21246;DHT22;10781;50.928;4.440;2023-03-01T02:28:59;2.90;99.90
21246;DHT22;10781;50.928;4.440;2023-03-01T02:31:25;2.70;99.90
21246;DHT22;10781;50.928;4.440;2023-03-01T02:34:21;2.60;99.90
21246;DHT22;10781;50.928;4.440;2023-03-01T02:36:53;2.50;99.90
21246;DHT22;10781;50.928;4.440;2023-03-01T02:39:26;2.70;99.90
21246;DHT22;10781;50.928;4.440;2023-03-01T02:41:53;2.60;99.90
21246;DHT22;10781;50.928;4.440;2023-03-01T02:44:20;2.20;99.90
21246;DHT22;10781;50.928;4.440;2023-03-01T02:46:50;2.30;99.90
21246;DHT22;10781;50.928;4.440;2023-03-01T02:49:31;2.20;99.90
21246;DHT22;10781;50.928;4.440;2023-03-01T02:54:58;1.90;99.90
21246;DHT22;10781;50.928;4.440;2023-03-01T02:57:26;1.90;99.90
21246;DHT22;10781;50.928;4.440;2023-03-01T02:59:54;2.00;99.90
21246;DHT22;10781;50.928;4.440;2023-03-01T03:02:25;2.00;99.90
21246;DHT22;10781;50.928;4.440;2023-03-01T03:05:13;1.80;99.90
21246;DHT22;10781;50.928;4.440;2023-03-01T03:07:42;1.50;99.90
21246;DHT22;10781;50.928;4.440;2023-03-01T03:10:12;1.30;99.90
21246;DHT22;10781;50.928;4.440;2023-03-01T03:12:38;0.90;99.90
21246;DHT22;10781;50.928;4.440;2023-03-01T03:15:06;0.80;99.90
21246;DHT22;10781;50.928;4.440;2023-03-01T03:17:38;0.70;99.90
21246;DHT22;10781;50.928;4.440;2023-03-01T03:20:05;0.70;99.90
21246;DHT22;10781;50.928;4.440;2023-03-01T03:22:32;0.70;99.90
21246;DHT22;10781;50.928;4.440;2023-03-01T03:24:59;0.60;99.90
21246;DHT22;10781;50.928;4.440;2023-03-01T03:27:25;0.70;99.90
21246;DHT22;10781;50.928;4.440;2023-03-01T03:29:51;0.70;99.90
21246;DHT22;10781;50.928;4.440;2023-03-01T03:32:16;0.90;99.90
21246;DHT22;10781;50.928;4.440;2023-03-01T03:34:42;0.90;99.90
21246;DHT22;10781;50.928;4.440;2023-03-01T03:37:07;0.80;99.90
21246;DHT22;10781;50.928;4.440;2023-03-01T03:39:53;0.90;99.90
21246;DHT22;10781;50.928;4.440;2023-03-01T03:42:20;0.80;99.90
21246;DHT22;10781;50.928;4.440;2023-03-01T03:44:47;0.60;99.90
21246;DHT22;10781;50.928;4.440;2023-03-01T03:47:13;0.60;99.90
21246;DHT22;10781;50.928;4.440;2023-03-01T03:49:38;0.60;99.90
21246;DHT22;10781;50.928;4.440;2023-03-01T03:52:04;0.60;99.90
21246;DHT22;10781;50.928;4.440;2023-03-01T03:54:30;0.60;99.90
21246;DHT22;10781;50.928;4.440;2023-03-01T03:56:55;0.70;99.90
21246;DHT22;10781;50.928;4.440;2023-03-01T03:59:21;0.70;99.90
21246;DHT22;10781;50.928;4.440;2023-03-01T04:01:46;0.60;99.90
21246;DHT22;10781;50.928;4.440;2023-03-01T04:04:12;0.70;99.90
21246;DHT22;10781;50.928;4.440;2023-03-01T04:06:38;0.90;99.90
21246;DHT22;10781;50.928;4.440;2023-03-01T04:09:04;0.70;99.90
21246;DHT22;10781;50.928;4.440;2023-03-01T04:11:29;0.70;99.90
21246;DHT22;10781;50.928;4.440;2023-03-01T04:13:57;0.70;99.90
21246;DHT22;10781;50.928;4.440;2023-03-01T04:16:23;0.50;99.90
21246;DHT22;10781;50.928;4.440;2023-03-01T04:18:49;0.60;99.90
21246;DHT22;10781;50.928;4.440;2023-03-01T04:21:15;0.60;99.90
21246;DHT22;10781;50.928;4.440;2023-03-01T04:23:41;0.60;99.90
21246;DHT22;10781;50.928;4.440;2023-03-01T04:26:06;0.60;99.90
21246;DHT22;10781;50.928;4.440;2023-03-01T04:28:40;0.70;99.90
21246;DHT22;10781;50.928;4.440;2023-03-01T04:31:17;0.60;99.90
21246;DHT22;10781;50.928;4.440;2023-03-01T04:33:52;0.50;99.90
21246;DHT22;10781;50.928;4.440;2023-03-01T04:36:20;0.50;99.90
21246;DHT22;10781;50.928;4.440;2023-03-01T04:38:46;0.80;99.90
21246;DHT22;10781;50.928;4.440;2023-03-01T04:41:13;1.20;99.90
21246;DHT22;10781;50.928;4.440;2023-03-01T04:43:39;1.40;99.90
21246;DHT22;10781;50.928;4.440;2023-03-01T04:46:08;1.30;99.90
21246;DHT22;10781;50.928;4.440;2023-03-01T04:48:38;1.60;99.90
21246;DHT22;10781;50.928;4.440;2023-03-01T04:51:05;1.60;99.90
21246;DHT22;10781;50.928;4.440;2023-03-01T04:53:31;1.20;99.90
21246;DHT22;10781;50.928;4.440;2023-03-01T04:55:58;1.10;99.90
21246;DHT22;10781;50.928;4.440;2023-03-01T04:58:26;0.80;99.90
21246;DHT22;10781;50.928;4.440;2023-03-01T05:00:52;0.70;99.90
21246;DHT22;10781;50.928;4.440;2023-03-01T05:03:18;0.60;99.90
21246;DHT22;10781;50.928;4.440;2023-03-01T05:05:45;0.50;99.90
21246;DHT22;10781;50.928;4.440;2023-03-01T05:08:11;0.50;99.90
21246;DHT22;10781;50.928;4.440;2023-03-01T05:10:44;0.60;99.90
21246;DHT22;10781;50.928;4.440;2023-03-01T05:13:11;0.50;99.90
21246;DHT22;10781;50.928;4.440;2023-03-01T05:15:39;0.50;99.90
21246;DHT22;10781;50.928;4.440;2023-03-01T05:18:04;1.00;99.90
21246;DHT22;10781;50.928;4.440;2023-03-01T05:20:37;1.40;99.90
21246;DHT22;10781;50.928;4.440;2023-03-01T05:23:03;1.40;99.90
21246;DHT22;10781;50.928;4.440;2023-03-01T05:25:32;1.10;99.90
21246;DHT22;10781;50.928;4.440;2023-03-01T05:27:59;0.90;99.90
21246;DHT22;10781;50.928;4.440;2023-03-01T05:30:30;1.10;99.90
21246;DHT22;10781;50.928;4.440;2023-03-01T05:32:56;1.10;99.90
21246;DHT22;10781;50.928;4.440;2023-03-01T05:35:22;1.10;99.90
21246;DHT22;10781;50.928;4.440;2023-03-01T05:37:49;0.80;99.90
21246;DHT22;10781;50.928;4.440;2023-03-01T05:40:18;0.90;99.90
21246;DHT22;10781;50.928;4.440;2023-03-01T05:42:46;1.00;99.90
21246;DHT22;10781;50.928;4.440;2023-03-01T05:45:13;0.90;99.90
21246;DHT22;10781;50.928;4.440;2023-03-01T05:47:40;1.00;99.90
21246;DHT22;10781;50.928;4.440;2023-03-01T05:50:18;1.10;99.90
21246;DHT22;10781;50.928;4.440;2023-03-01T05:52:46;1.00;99.90
21246;DHT22;10781;50.928;4.440;2023-03-01T05:55:12;0.80;99.90
21246;DHT22;10781;50.928;4.440;2023-03-01T05:57:38;0.70;99.90
21246;DHT22;10781;50.928;4.440;2023-03-01T06:00:04;0.50;99.90
21246;DHT22;10781;50.928;4.440;2023-03-01T06:02:31;0.70;99.90
21246;DHT22;10781;50.928;4.440;2023-03-01T06:04:57;0.70;99.90
21246;DHT22;10781;50.928;4.440;2023-03-01T06:07:23;0.50;99.90
21246;DHT22;10781;50.928;4.440;2023-03-01T06:09:48;0.60;99.90
21246;DHT22;10781;50.928;4.440;2023-03-01T06:12:14;0.80;99.90
21246;DHT22;10781;50.928;4.440;2023-03-01T06:14:40;1.10;99.90
21246;DHT22;10781;50.928;4.440;2023-03-01T06:17:05;1.00;99.90
21246;DHT22;10781;50.928;4.440;2023-03-01T06:19:31;0.80;99.90
21246;DHT22;10781;50.928;4.440;2023-03-01T06:21:56;0.90;99.90
21246;DHT22;10781;50.928;4.440;2023-03-01T06:24:22;0.80;99.90
21246;DHT22;10781;50.928;4.440;2023-03-01T06:26:48;0.50;99.90
21246;DHT22;10781;50.928;4.440;2023-03-01T06:29:13;0.50;99.90
21246;DHT22;10781;50.928;4.440;2023-03-01T06:31:40;0.70;99.90
21246;DHT22;10781;50.928;4.440;2023-03-01T06:34:05;1.00;99.90
21246;DHT22;10781;50.928;4.440;2023-03-01T06:36:31;0.80;99.90
21246;DHT22;10781;50.928;4.440;2023-03-01T06:38:56;0.80;99.90
21246;DHT22;10781;50.928;4.440;2023-03-01T06:41:22;1.10;99.90
21246;DHT22;10781;50.928;4.440;2023-03-01T06:43:48;1.20;99.90
21246;DHT22;10781;50.928;4.440;2023-03-01T06:46:13;1.20;99.90
21246;DHT22;10781;50.928;4.440;2023-03-01T06:48:39;1.20;99.90
21246;DHT22;10781;50.928;4.440;2023-03-01T06:51:05;0.80;99.90
21246;DHT22;10781;50.928;4.440;2023-03-01T06:53:30;0.60;99.90
21246;DHT22;10781;50.928;4.440;2023-03-01T06:55:59;0.40;99.90
21246;DHT22;10781;50.928;4.440;2023-03-01T06:58:27;0.20;99.90
21246;DHT22;10781;50.928;4.440;2023-03-01T07:00:53;0.10;99.90
21246;DHT22;10781;50.928;4.440;2023-03-01T07:03:19;0.20;99.90
21246;DHT22;10781;50.928;4.440;2023-03-01T07:05:44;0.20;99.90
21246;DHT22;10781;50.928;4.440;2023-03-01T07:08:10;0.40;99.90
21246;DHT22;10781;50.928;4.440;2023-03-01T07:10:36;0.10;99.90
21246;DHT22;10781;50.928;4.440;2023-03-01T07:13:02;0.10;99.90
21246;DHT22;10781;50.928;4.440;2023-03-01T07:15:28;0.10;99.90
21246;DHT22;10781;50.928;4.440;2023-03-01T07:17:54;0.00;99.90
21246;DHT22;10781;50.928;4.440;2023-03-01T07:20:20;0.20;99.90
21246;DHT22;10781;50.928;4.440;2023-03-01T07:22:50;0.20;99.90
21246;DHT22;10781;50.928;4.440;2023-03-01T07:25:15;0.30;99.90
21246;DHT22;10781;50.928;4.440;2023-03-01T07:27:41;0.20;99.90
21246;DHT22;10781;50.928;4.440;2023-03-01T07:30:07;0.20;99.90
21246;DHT22;10781;50.928;4.440;2023-03-01T07:32:33;0.20;99.90
21246;DHT22;10781;50.928;4.440;2023-03-01T07:34:59;0.20;99.90
21246;DHT22;10781;50.928;4.440;2023-03-01T07:37:24;0.30;99.90
21246;DHT22;10781;50.928;4.440;2023-03-01T07:39:50;0.30;99.90
21246;DHT22;10781;50.928;4.440;2023-03-01T07:42:15;0.40;99.90
21246;DHT22;10781;50.928;4.440;2023-03-01T07:44:41;0.40;99.90
21246;DHT22;10781;50.928;4.440;2023-03-01T07:47:07;0.40;99.90
21246;DHT22;10781;50.928;4.440;2023-03-01T07:49:32;0.40;99.90
21246;DHT22;10781;50.928;4.440;2023-03-01T07:51:59;0.40;99.90
21246;DHT22;10781;50.928;4.440;2023-03-01T07:54:25;0.50;99.90
21246;DHT22;10781;50.928;4.440;2023-03-01T07:56:51;0.60;99.90
21246;DHT22;10781;50.928;4.440;2023-03-01T07:59:17;0.50;99.90
21246;DHT22;10781;50.928;4.440;2023-03-01T08:01:43;0.70;99.90
21246;DHT22;10781;50.928;4.440;2023-03-01T08:04:09;0.80;99.90
21246;DHT22;10781;50.928;4.440;2023-03-01T08:06:35;0.90;99.90
21246;DHT22;10781;50.928;4.440;2023-03-01T08:09:01;0.90;99.90
21246;DHT22;10781;50.928;4.440;2023-03-01T08:11:27;1.20;99.90
21246;DHT22;10781;50.928;4.440;2023-03-01T08:13:55;1.20;99.90
21246;DHT22;10781;50.928;4.440;2023-03-01T08:16:22;1.50;99.90
21246;DHT22;10781;50.928;4.440;2023-03-01T08:18:48;1.40;99.90
21246;DHT22;10781;50.928;4.440;2023-03-01T08:21:16;1.70;99.90
21246;DHT22;10781;50.928;4.440;2023-03-01T08:23:42;1.80;99.90
21246;DHT22;10781;50.928;4.440;2023-03-01T08:28:34;2.80;99.90
21246;DHT22;10781;50.928;4.440;2023-03-01T08:30:59;3.80;99.90
21246;DHT22;10781;50.928;4.440;2023-03-01T08:33:25;5.80;99.90
21246;DHT22;10781;50.928;4.440;2023-03-01T08:35:51;6.50;99.90
21246;DHT22;10781;50.928;4.440;2023-03-01T08:38:16;7.80;99.90
21246;DHT22;10781;50.928;4.440;2023-03-01T08:40:42;9.70;99.90
21246;DHT22;10781;50.928;4.440;2023-03-01T08:43:07;10.20;99.90
21246;DHT22;10781;50.928;4.440;2023-03-01T08:45:33;10.00;99.90
21246;DHT22;10781;50.928;4.440;2023-03-01T08:47:59;8.80;99.90
21246;DHT22;10781;50.928;4.440;2023-03-01T08:50:24;7.20;99.90
21246;DHT22;10781;50.928;4.440;2023-03-01T08:52:50;6.60;99.90
21246;DHT22;10781;50.928;4.440;2023-03-01T08:55:16;6.40;99.90
21246;DHT22;10781;50.928;4.440;2023-03-01T08:57:43;6.70;99.90
21246;DHT22;10781;50.928;4.440;2023-03-01T09:00:09;8.00;99.90
21246;DHT22;10781;50.928;4.440;2023-03-01T09:02:37;10.10;99.90
21246;DHT22;10781;50.928;4.440;2023-03-01T09:05:04;11.00;99.90
21246;DHT22;10781;50.928;4.440;2023-03-01T09:07:30;12.30;99.90
21246;DHT22;10781;50.928;4.440;2023-03-01T09:09:55;12.50;96.80
21246;DHT22;10781;50.928;4.440;2023-03-01T09:12:21;13.10;94.80
21246;DHT22;10781;50.928;4.440;2023-03-01T09:14:47;12.50;93.70
21246;DHT22;10781;50.928;4.440;2023-03-01T09:17:13;10.90;95.30
21246;DHT22;10781;50.928;4.440;2023-03-01T09:19:38;9.00;98.20
21246;DHT22;10781;50.928;4.440;2023-03-01T09:22:04;8.50;99.90
21246;DHT22;10781;50.928;4.440;2023-03-01T09:24:30;9.80;99.90
21246;DHT22;10781;50.928;4.440;2023-03-01T09:26:56;11.70;96.30
21246;DHT22;10781;50.928;4.440;2023-03-01T09:29:22;13.20;93.70
21246;DHT22;10781;50.928;4.440;2023-03-01T09:31:48;14.40;91.00
21246;DHT22;10781;50.928;4.440;2023-03-01T09:34:13;15.10;86.10
21246;DHT22;10781;50.928;4.440;2023-03-01T09:36:41;14.70;84.40
21246;DHT22;10781;50.928;4.440;2023-03-01T09:39:07;16.00;80.00
21246;DHT22;10781;50.928;4.440;2023-03-01T09:41:59;16.50;75.20
21246;DHT22;10781;50.928;4.440;2023-03-01T09:44:34;16.40;73.80
21246;DHT22;10781;50.928;4.440;2023-03-01T09:47:01;14.80;74.40
21246;DHT22;10781;50.928;4.440;2023-03-01T09:49:39;14.90;76.00
21246;DHT22;10781;50.928;4.440;2023-03-01T09:52:19;13.60;75.90
21246;DHT22;10781;50.928;4.440;2023-03-01T09:54:47;10.90;82.10
21246;DHT22;10781;50.928;4.440;2023-03-01T10:06:14;13.70;80.40
21246;DHT22;10781;50.928;4.440;2023-03-01T10:11:30;15.10;74.40
21246;DHT22;10781;50.928;4.440;2023-03-01T10:19:33;16.20;71.20
21246;DHT22;10781;50.928;4.440;2023-03-01T10:22:15;17.80;68.20
21246;DHT22;10781;50.928;4.440;2023-03-01T10:24:41;17.30;63.30
21246;DHT22;10781;50.928;4.440;2023-03-01T10:27:25;14.80;69.50
21246;DHT22;10781;50.928;4.440;2023-03-01T10:30:13;15.20;70.80
21246;DHT22;10781;50.928;4.440;2023-03-01T10:32:43;15.40;67.40
21246;DHT22;10781;50.928;4.440;2023-03-01T10:35:18;16.20;67.90
21246;DHT22;10781;50.928;4.440;2023-03-01T10:38:06;17.00;64.90
21246;DHT22;10781;50.928;4.440;2023-03-01T10:40:33;17.50;62.70
21246;DHT22;10781;50.928;4.440;2023-03-01T10:43:01;17.30;62.40
21246;DHT22;10781;50.928;4.440;2023-03-01T10:45:39;16.70;63.50
21246;DHT22;10781;50.928;4.440;2023-03-01T10:48:15;14.80;66.20
21246;DHT22;10781;50.928;4.440;2023-03-01T10:50:46;13.70;69.40
21246;DHT22;10781;50.928;4.440;2023-03-01T10:58:29;14.40;67.20
21246;DHT22;10781;50.928;4.440;2023-03-01T11:01:00;14.40;68.50
21246;DHT22;10781;50.928;4.440;2023-03-01T11:03:28;16.80;64.60
21246;DHT22;10781;50.928;4.440;2023-03-01T11:08:31;17.70;61.60
21246;DHT22;10781;50.928;4.440;2023-03-01T11:11:33;18.00;60.20
21246;DHT22;10781;50.928;4.440;2023-03-01T11:14:24;19.30;56.40
21246;DHT22;10781;50.928;4.440;2023-03-01T11:17:00;18.30;55.80
21246;DHT22;10781;50.928;4.440;2023-03-01T11:19:26;18.50;56.20
21246;DHT22;10781;50.928;4.440;2023-03-01T11:22:14;17.90;56.30
21246;DHT22;10781;50.928;4.440;2023-03-01T11:24:45;19.70;54.90
21246;DHT22;10781;50.928;4.440;2023-03-01T11:27:28;19.00;53.70
21246;DHT22;10781;50.928;4.440;2023-03-01T11:33:05;22.10;51.70
21246;DHT22;10781;50.928;4.440;2023-03-01T11:38:41;18.10;53.90
21246;DHT22;10781;50.928;4.440;2023-03-01T11:41:15;18.30;54.50
21246;DHT22;10781;50.928;4.440;2023-03-01T11:54:18;22.90;45.20
21246;DHT22;10781;50.928;4.440;2023-03-01T11:56:52;22.50;47.20
21246;DHT22;10781;50.928;4.440;2023-03-01T11:59:54;23.20;44.80
21246;DHT22;10781;50.928;4.440;2023-03-01T12:02:35;21.00;46.90
21246;DHT22;10781;50.928;4.440;2023-03-01T12:19:21;17.70;50.70
21246;DHT22;10781;50.928;4.440;2023-03-01T12:41:16;19.70;47.10
21246;DHT22;10781;50.928;4.440;2023-03-01T12:49:16;18.40;46.50
21246;DHT22;10781;50.928;4.440;2023-03-01T12:51:53;18.90;47.90
21246;DHT22;10781;50.928;4.440;2023-03-01T12:54:31;21.20;45.70
21246;DHT22;10781;50.928;4.440;2023-03-01T12:57:08;20.40;45.40
21246;DHT22;10781;50.928;4.440;2023-03-01T12:59:47;19.80;46.70
21246;DHT22;10781;50.928;4.440;2023-03-01T13:05:14;19.40;46.90
21246;DHT22;10781;50.928;4.440;2023-03-01T13:07:51;19.40;46.60
21246;DHT22;10781;50.928;4.440;2023-03-01T13:10:33;20.30;46.60
21246;DHT22;10781;50.928;4.440;2023-03-01T13:13:13;20.30;45.40
21246;DHT22;10781;50.928;4.440;2023-03-01T13:15:40;18.20;47.80
21246;DHT22;10781;50.928;4.440;2023-03-01T13:26:03;16.00;51.40
21246;DHT22;10781;50.928;4.440;2023-03-01T13:31:03;16.40;50.40
21246;DHT22;10781;50.928;4.440;2023-03-01T13:35:56;17.60;48.70
21246;DHT22;10781;50.928;4.440;2023-03-01T13:38:46;17.40;49.20
21246;DHT22;10781;50.928;4.440;2023-03-01T13:41:24;19.80;47.20
21246;DHT22;10781;50.928;4.440;2023-03-01T13:46:51;18.90;46.30
21246;DHT22;10781;50.928;4.440;2023-03-01T13:49:23;17.90;48.30
21246;DHT22;10781;50.928;4.440;2023-03-01T13:51:51;16.70;48.70
21246;DHT22;10781;50.928;4.440;2023-03-01T13:54:33;16.90;49.70
21246;DHT22;10781;50.928;4.440;2023-03-01T13:57:00;18.10;49.20
21246;DHT22;10781;50.928;4.440;2023-03-01T13:59:26;19.50;46.10
21246;DHT22;10781;50.928;4.440;2023-03-01T14:01:57;19.40;46.40
21246;DHT22;10781;50.928;4.440;2023-03-01T14:04:31;21.00;45.90
21246;DHT22;10781;50.928;4.440;2023-03-01T14:07:21;21.40;44.50
21246;DHT22;10781;50.928;4.440;2023-03-01T14:09:52;19.50;44.80
21246;DHT22;10781;50.928;4.440;2023-03-01T14:15:34;17.80;48.50
21246;DHT22;10781;50.928;4.440;2023-03-01T14:20:43;18.30;48.80
21246;DHT22;10781;50.928;4.440;2023-03-01T14:23:19;18.50;48.40
21246;DHT22;10781;50.928;4.440;2023-03-01T14:25:54;18.40;48.00
21246;DHT22;10781;50.928;4.440;2023-03-01T14:28:27;18.00;49.00
21246;DHT22;10781;50.928;4.440;2023-03-01T14:30:56;17.60;49.10
21246;DHT22;10781;50.928;4.440;2023-03-01T14:33:40;16.10;50.70
21246;DHT22;10781;50.928;4.440;2023-03-01T14:36:11;16.80;51.60
21246;DHT22;10781;50.928;4.440;2023-03-01T14:38:47;16.80;50.70
21246;DHT22;10781;50.928;4.440;2023-03-01T14:41:20;17.50;49.90
21246;DHT22;10781;50.928;4.440;2023-03-01T14:43:52;16.90;49.10
21246;DHT22;10781;50.928;4.440;2023-03-01T14:48:57;15.50;52.10
21246;DHT22;10781;50.928;4.440;2023-03-01T14:51:26;15.20;52.50
21246;DHT22;10781;50.928;4.440;2023-03-01T14:53:52;15.00;52.10
21246;DHT22;10781;50.928;4.440;2023-03-01T14:56:18;15.30;53.10
21246;DHT22;10781;50.928;4.440;2023-03-01T14:58:44;14.40;53.30
21246;DHT22;10781;50.928;4.440;2023-03-01T15:01:14;14.10;54.40
21246;DHT22;10781;50.928;4.440;2023-03-01T15:03:49;13.90;55.20
21246;DHT22;10781;50.928;4.440;2023-03-01T15:06:18;13.70;55.40
21246;DHT22;10781;50.928;4.440;2023-03-01T15:08:50;13.00;56.50
21246;DHT22;10781;50.928;4.440;2023-03-01T15:11:20;12.90;57.10
21246;DHT22;10781;50.928;4.440;2023-03-01T15:13:48;13.40;56.60
21246;DHT22;10781;50.928;4.440;2023-03-01T15:16:29;13.80;56.30
21246;DHT22;10781;50.928;4.440;2023-03-01T15:19:00;14.00;55.40
21246;DHT22;10781;50.928;4.440;2023-03-01T15:21:31;14.50;54.10
21246;DHT22;10781;50.928;4.440;2023-03-01T15:24:05;14.30;54.50
21246;DHT22;10781;50.928;4.440;2023-03-01T15:26:39;14.40;54.70
21246;DHT22;10781;50.928;4.440;2023-03-01T15:29:18;14.30;54.40
21246;DHT22;10781;50.928;4.440;2023-03-01T15:31:56;14.00;54.60
21246;DHT22;10781;50.928;4.440;2023-03-01T15:36:51;14.70;54.30
21246;DHT22;10781;50.928;4.440;2023-03-01T15:39:56;14.10;54.90
21246;DHT22;10781;50.928;4.440;2023-03-01T15:47:47;12.80;56.50
21246;DHT22;10781;50.928;4.440;2023-03-01T15:50:53;12.80;57.50
21246;DHT22;10781;50.928;4.440;2023-03-01T15:53:19;12.40;58.50
21246;DHT22;10781;50.928;4.440;2023-03-01T15:55:44;12.70;58.10
21246;DHT22;10781;50.928;4.440;2023-03-01T15:58:21;12.60;57.80
21246;DHT22;10781;50.928;4.440;2023-03-01T16:00:48;12.60;58.50
21246;DHT22;10781;50.928;4.440;2023-03-01T16:03:16;12.80;59.00
21246;DHT22;10781;50.928;4.440;2023-03-01T16:05:47;12.30;58.90
21246;DHT22;10781;50.928;4.440;2023-03-01T16:08:13;11.90;60.20
21246;DHT22;10781;50.928;4.440;2023-03-01T16:10:40;12.30;60.40
21246;DHT22;10781;50.928;4.440;2023-03-01T16:13:06;12.30;59.60
21246;DHT22;10781;50.928;4.440;2023-03-01T16:15:33;12.10;59.20
21246;DHT22;10781;50.928;4.440;2023-03-01T16:18:04;11.20;61.30
21246;DHT22;10781;50.928;4.440;2023-03-01T16:20:35;10.70;62.80
21246;DHT22;10781;50.928;4.440;2023-03-01T16:23:03;10.60;63.40
21246;DHT22;10781;50.928;4.440;2023-03-01T16:25:30;10.40;64.70
21246;DHT22;10781;50.928;4.440;2023-03-01T16:27:57;9.80;64.90
21246;DHT22;10781;50.928;4.440;2023-03-01T16:30:26;9.90;66.00
21246;DHT22;10781;50.928;4.440;2023-03-01T16:32:52;9.60;66.30
21246;DHT22;10781;50.928;4.440;2023-03-01T16:35:19;9.40;67.60
21246;DHT22;10781;50.928;4.440;2023-03-01T16:37:46;9.10;68.60
21246;DHT22;10781;50.928;4.440;2023-03-01T16:40:18;9.00;69.10
21246;DHT22;10781;50.928;4.440;2023-03-01T16:42:44;9.10;69.70
21246;DHT22;10781;50.928;4.440;2023-03-01T16:45:10;9.20;70.00
21246;DHT22;10781;50.928;4.440;2023-03-01T16:47:36;8.80;71.50
21246;DHT22;10781;50.928;4.440;2023-03-01T16:50:02;8.60;72.10
21246;DHT22;10781;50.928;4.440;2023-03-01T16:52:28;8.60;72.50
21246;DHT22;10781;50.928;4.440;2023-03-01T16:54:53;8.50;73.00
21246;DHT22;10781;50.928;4.440;2023-03-01T16:57:19;8.20;73.50
21246;DHT22;10781;50.928;4.440;2023-03-01T16:59:45;8.00;74.50
21246;DHT22;10781;50.928;4.440;2023-03-01T17:02:12;7.90;75.50
21246;DHT22;10781;50.928;4.440;2023-03-01T17:04:41;7.90;76.40
21246;DHT22;10781;50.928;4.440;2023-03-01T17:07:07;7.90;76.60
21246;DHT22;10781;50.928;4.440;2023-03-01T17:09:37;7.70;77.50
21246;DHT22;10781;50.928;4.440;2023-03-01T17:12:06;7.70;78.10
21246;DHT22;10781;50.928;4.440;2023-03-01T17:14:31;7.60;78.80
21246;DHT22;10781;50.928;4.440;2023-03-01T17:16:57;7.70;79.50
21246;DHT22;10781;50.928;4.440;2023-03-01T17:19:23;7.70;79.70
21246;DHT22;10781;50.928;4.440;2023-03-01T17:21:48;7.60;80.40
21246;DHT22;10781;50.928;4.440;2023-03-01T17:24:14;7.70;81.50
21246;DHT22;10781;50.928;4.440;2023-03-01T17:26:40;7.70;82.20
21246;DHT22;10781;50.928;4.440;2023-03-01T17:29:06;7.80;81.10
21246;DHT22;10781;50.928;4.440;2023-03-01T17:31:32;7.70;81.60
21246;DHT22;10781;50.928;4.440;2023-03-01T17:33:58;7.60;82.40
21246;DHT22;10781;50.928;4.440;2023-03-01T17:36:24;7.60;82.70
21246;DHT22;10781;50.928;4.440;2023-03-01T17:38:50;7.50;84.10
21246;DHT22;10781;50.928;4.440;2023-03-01T17:41:16;7.40;84.30
21246;DHT22;10781;50.928;4.440;2023-03-01T17:43:44;7.30;85.10
21246;DHT22;10781;50.928;4.440;2023-03-01T17:46:09;7.30;86.00
21246;DHT22;10781;50.928;4.440;2023-03-01T17:48:36;7.40;85.30
21246;DHT22;10781;50.928;4.440;2023-03-01T17:51:06;7.20;86.30
21246;DHT22;10781;50.928;4.440;2023-03-01T17:53:32;7.30;87.50
21246;DHT22;10781;50.928;4.440;2023-03-01T17:56:00;7.40;87.60
21246;DHT22;10781;50.928;4.440;2023-03-01T17:58:26;7.50;87.10